CYSF

Stony Rapids Airport

Stony Rapids, Saskatchewan, Canada
METAR CYSF 201000Z AUTO 11003KT 9SM SCT170 BKN190 M38/M42 A3021 RMK SLP277
Observed Flight Rules
Jan-20 @ 10:00 UTC (an hour ago) Visual Flight Rules
Wind Visibility Clouds
110° at 3 knots 9 miles
  • Scattered at 17,000' AGL
  • Broken at 19,000' AGL
Temperatures Readings
Current -38°C / -36°F
Dewpoint -42°C / -44°F
Humidity 66%
Altimeter 30.21" Hg
Pressure 1027.7 hPa
Elevation 250
METAR CYSF 201000Z AUTO 11003KT 9SM SCT170 BKN190 M38/M42 A3021 RMK SLP277
Observed Flight Rules
Jan-20 @ 10:00 UTC
(an hour ago)
VFR
Wind Visibility
110° at 3 knots 9 miles
Clouds
  • Scattered at 17,000' AGL
  • Broken at 19,000' AGL
Temperature Dewpoint
-38°C / -36°F -42°C / -44°F
Humidity Altimeter Pressure
66% 30.21" Hg 1027.7 hPa